createdAt,value
2023-04-28T00:00:14.918Z,95314.84
2023-04-28T00:02:43.277Z,95307.97
2023-04-28T00:05:12.516Z,95312.81
2023-04-28T00:07:41.533Z,95308.84
2023-04-28T00:10:11.194Z,95311.75
2023-04-28T00:12:39.489Z,95315.28
2023-04-28T00:15:09.512Z,95310.94
2023-04-28T00:17:39.311Z,95311.38
2023-04-28T00:20:09.885Z,95311.03
2023-04-28T00:22:38.868Z,95321.13
2023-04-28T00:25:08.339Z,95310.53
2023-04-28T00:27:37.782Z,95310.13
2023-04-28T00:30:07.930Z,95265.22
2023-04-28T00:32:36.230Z,95316.44
2023-04-28T00:35:06.225Z,95324.50
2023-04-28T00:37:38.209Z,95314.56
2023-04-28T00:40:09.088Z,95327.16
2023-04-28T00:42:37.522Z,95320.38
2023-04-28T00:45:07.743Z,95319.25
2023-04-28T00:47:36.459Z,95325.00
2023-04-28T00:50:06.896Z,95333.41
2023-04-28T00:52:35.694Z,95324.31
2023-04-28T00:55:04.348Z,95323.22
2023-04-28T00:57:32.717Z,95323.91
2023-04-28T01:00:00.755Z,95322.72
2023-04-28T01:02:31.652Z,95332.88
2023-04-28T01:05:01.414Z,95331.50
2023-04-28T01:07:31.473Z,95333.38
2023-04-28T01:10:00.506Z,95338.41
2023-04-28T01:12:30.865Z,95318.63
2023-04-28T01:14:59.341Z,95334.88
2023-04-28T01:17:27.520Z,95333.56
2023-04-28T01:19:56.164Z,95287.34
2023-04-28T01:22:24.460Z,95334.66
2023-04-28T01:24:54.036Z,95342.03
2023-04-28T01:27:23.921Z,95342.19
2023-04-28T01:29:51.965Z,95342.69
2023-04-28T01:32:20.012Z,95326.41
2023-04-28T01:34:48.504Z,95349.34
2023-04-28T01:37:16.760Z,95333.03
2023-04-28T01:39:45.138Z,95339.59
2023-04-28T01:42:14.908Z,95346.59
2023-04-28T01:44:43.783Z,95336.63
2023-04-28T01:47:12.199Z,95325.88
2023-04-28T01:49:40.201Z,95339.50
2023-04-28T01:52:08.573Z,95340.00
2023-04-28T01:54:37.133Z,95340.84
2023-04-28T01:57:05.394Z,95338.19
2023-04-28T01:59:35.210Z,95346.88
2023-04-28T02:02:03.523Z,95330.31
2023-04-28T02:04:32.504Z,95349.06
2023-04-28T02:07:01.010Z,95336.94
2023-04-28T02:09:29.165Z,95349.78
2023-04-28T02:11:57.420Z,95345.78
2023-04-28T02:14:25.857Z,95347.56
2023-04-28T02:16:56.380Z,95350.19
2023-04-28T02:19:24.909Z,95356.94
2023-04-28T02:21:52.941Z,95350.78
2023-04-28T02:24:21.267Z,95357.97
2023-04-28T02:26:49.461Z,95354.25
2023-04-28T02:29:17.646Z,95355.78
2023-04-28T02:31:46.361Z,95350.84
2023-04-28T02:34:16.251Z,95366.88
2023-04-28T02:36:44.558Z,95363.38
2023-04-28T02:39:13.975Z,95371.13
2023-04-28T02:41:42.940Z,95370.56
2023-04-28T02:44:12.049Z,95361.97
2023-04-28T02:46:39.947Z,95358.94
2023-04-28T02:49:08.125Z,95370.16
2023-04-28T02:51:39.000Z,95367.16
2023-04-28T02:54:07.520Z,95369.63
2023-04-28T02:56:36.903Z,95376.56
2023-04-28T02:59:05.707Z,95375.75
2023-04-28T03:01:33.760Z,95381.81
2023-04-28T03:04:04.245Z,95305.91
2023-04-28T03:06:33.360Z,95384.63
2023-04-28T03:09:03.010Z,95389.06
2023-04-28T03:11:32.521Z,95385.91
2023-04-28T03:14:00.713Z,95388.94
2023-04-28T03:16:28.846Z,95389.81
2023-04-28T03:18:57.149Z,95388.59
2023-04-28T03:21:26.840Z,95386.97
2023-04-28T03:23:55.111Z,95387.56
2023-04-28T03:26:24.743Z,95396.19
2023-04-28T03:28:53.516Z,95404.34
2023-04-28T03:31:21.750Z,95412.53
2023-04-28T03:33:49.992Z,95413.34
2023-04-28T03:36:18.412Z,95408.56
2023-04-28T03:38:46.593Z,95418.13
2023-04-28T03:41:14.580Z,95428.53
2023-04-28T03:43:44.264Z,95422.72
2023-04-28T03:46:12.319Z,95433.66
2023-04-28T03:48:40.525Z,95435.91
2023-04-28T03:51:08.861Z,95433.53
2023-04-28T03:53:36.938Z,95441.84
2023-04-28T03:56:05.150Z,95442.22
2023-04-28T03:58:33.115Z,95452.13
2023-04-28T04:01:02.964Z,95449.09
2023-04-28T04:03:31.278Z,95458.31
2023-04-28T04:06:00.124Z,95467.53
2023-04-28T04:08:28.433Z,95460.94
2023-04-28T04:10:56.417Z,95469.66
2023-04-28T04:13:24.561Z,95435.53
2023-04-28T04:15:55.166Z,95476.09
2023-04-28T04:18:24.858Z,95467.28
2023-04-28T04:20:54.188Z,95472.41
2023-04-28T04:23:22.259Z,95482.56
2023-04-28T04:25:50.669Z,95480.16
2023-04-28T04:28:19.490Z,95482.16
2023-04-28T04:30:47.939Z,95485.53
2023-04-28T04:33:15.953Z,95482.28
2023-04-28T04:35:45.744Z,95485.41
2023-04-28T04:38:14.565Z,95464.16
2023-04-28T04:40:44.927Z,95486.81
2023-04-28T04:43:13.086Z,95477.81
2023-04-28T04:45:41.037Z,95482.66
2023-04-28T04:48:09.526Z,95487.38
2023-04-28T04:50:37.896Z,95492.63
2023-04-28T04:53:09.944Z,95493.16
2023-04-28T04:55:40.812Z,95493.97
2023-04-28T04:58:08.797Z,95502.25
2023-04-28T05:00:37.821Z,95508.75
2023-04-28T05:03:07.356Z,95503.81
2023-04-28T05:05:35.824Z,95500.88
2023-04-28T05:08:06.090Z,95505.31
2023-04-28T05:10:35.643Z,95510.28
2023-04-28T05:13:03.751Z,95512.78
2023-04-28T05:15:32.920Z,95503.94
2023-04-28T05:18:01.487Z,95515.81
2023-04-28T05:20:29.511Z,95520.81
2023-04-28T05:22:58.204Z,95519.25
2023-04-28T05:25:28.448Z,95506.09
2023-04-28T05:27:58.491Z,95510.59
2023-04-28T05:30:26.837Z,95503.28
2023-04-28T05:32:55.835Z,95505.13
2023-04-28T05:35:23.855Z,95504.41
2023-04-28T05:37:53.652Z,95495.34
2023-04-28T05:40:22.342Z,95456.22
2023-04-28T05:42:50.600Z,95509.84
2023-04-28T05:45:20.335Z,95506.44
2023-04-28T05:47:48.662Z,95508.78
2023-04-28T05:50:17.020Z,95488.06
2023-04-28T05:52:45.538Z,95511.31
2023-04-28T05:55:16.591Z,95510.75
2023-04-28T05:57:52.307Z,95517.06
2023-04-28T06:00:23.437Z,95508.47
2023-04-28T06:02:51.572Z,95501.22
2023-04-28T06:05:21.347Z,95512.13
2023-04-28T06:07:50.265Z,95511.25
2023-04-28T06:10:18.725Z,95518.56
2023-04-28T06:12:47.369Z,95515.69
2023-04-28T06:15:15.899Z,95514.81
2023-04-28T06:17:45.786Z,95477.59
2023-04-28T06:20:15.123Z,95512.56
2023-04-28T06:22:43.397Z,95511.66
2023-04-28T06:25:11.493Z,95509.38
2023-04-28T06:27:40.090Z,95449.25
2023-04-28T06:30:10.771Z,95505.28
2023-04-28T06:32:39.203Z,95510.78
2023-04-28T06:35:10.052Z,95518.31
2023-04-28T06:37:38.433Z,95515.66
2023-04-28T06:40:07.515Z,95500.63
2023-04-28T06:42:36.118Z,95501.88
2023-04-28T06:45:04.183Z,95460.72
2023-04-28T06:47:32.170Z,95509.31
2023-04-28T06:50:02.164Z,95510.19
2023-04-28T06:52:38.556Z,95502.81
2023-04-28T06:55:09.529Z,95420.34
2023-04-28T06:57:38.344Z,95503.31
2023-04-28T07:00:08.260Z,95501.31
2023-04-28T07:02:38.249Z,95510.22
2023-04-28T07:05:07.314Z,95515.38
2023-04-28T07:07:38.871Z,95517.28
2023-04-28T07:10:07.685Z,95502.50
2023-04-28T07:12:35.747Z,95515.38
2023-04-28T07:15:03.867Z,95500.25
2023-04-28T07:17:32.138Z,95506.91
2023-04-28T07:20:00.530Z,95506.28
2023-04-28T07:22:29.205Z,95497.72
2023-04-28T07:24:58.858Z,95493.59
2023-04-28T07:27:28.236Z,95507.91
2023-04-28T07:29:57.028Z,95502.31
2023-04-28T07:32:25.462Z,95472.41
2023-04-28T07:34:53.406Z,95460.75
2023-04-28T07:37:21.540Z,95496.38
2023-04-28T07:39:49.616Z,95496.56
2023-04-28T07:42:19.337Z,95487.13
2023-04-28T07:44:47.594Z,95493.06
2023-04-28T07:47:15.746Z,95498.47
2023-04-28T07:49:43.874Z,95506.88
2023-04-28T07:52:12.184Z,95504.72
2023-04-28T07:54:40.337Z,95505.78
2023-04-28T07:57:08.351Z,95500.13
2023-04-28T07:59:37.875Z,95503.63
2023-04-28T08:02:08.671Z,95498.09
2023-04-28T08:04:40.737Z,95502.53
2023-04-28T08:07:10.065Z,95499.31
2023-04-28T08:09:38.085Z,95500.44
2023-04-28T08:12:06.638Z,95495.44
2023-04-28T08:14:34.823Z,95488.50
2023-04-28T08:17:04.737Z,95497.56
2023-04-28T08:19:33.434Z,95494.69
2023-04-28T08:22:05.788Z,95497.84
2023-04-28T08:24:34.654Z,95494.81
2023-04-28T08:27:04.482Z,95495.94
2023-04-28T08:29:33.985Z,95478.78
2023-04-28T08:32:03.830Z,95479.06
2023-04-28T08:34:31.834Z,95486.03
2023-04-28T08:37:00.500Z,95475.38
2023-04-28T08:39:29.451Z,95482.00
2023-04-28T08:41:58.863Z,95473.88
2023-04-28T08:44:27.152Z,95483.97
2023-04-28T08:46:58.262Z,95477.03
2023-04-28T08:49:37.515Z,95486.41
2023-04-28T08:52:11.969Z,95476.13
2023-04-28T08:54:41.301Z,95471.16
2023-04-28T08:57:11.192Z,95469.44
2023-04-28T08:59:42.571Z,95473.03
2023-04-28T09:02:11.521Z,95472.88
2023-04-28T09:04:41.600Z,95450.50
2023-04-28T09:07:12.979Z,95478.78
2023-04-28T09:09:42.024Z,95468.09
2023-04-28T09:12:10.362Z,95451.34
2023-04-28T09:14:43.309Z,95449.16
2023-04-28T09:17:13.229Z,95448.41
2023-04-28T09:19:44.120Z,95458.75
2023-04-28T09:22:24.667Z,95446.81
2023-04-28T09:24:55.702Z,95447.53
2023-04-28T09:27:29.139Z,95424.09
2023-04-28T09:29:57.899Z,95386.78
2023-04-28T09:32:28.136Z,95438.41
2023-04-28T09:34:58.479Z,95447.44
2023-04-28T09:37:31.004Z,95440.78
2023-04-28T09:40:06.848Z,95429.94
2023-04-28T09:42:38.054Z,95424.63
2023-04-28T09:45:09.670Z,95428.50
2023-04-28T09:47:40.440Z,95410.25
2023-04-28T09:50:14.369Z,95411.72
2023-04-28T09:52:44.833Z,95407.28
2023-04-28T09:55:14.066Z,95372.44
2023-04-28T09:57:44.074Z,95420.94
2023-04-28T10:00:12.980Z,95400.47
2023-04-28T10:02:43.648Z,95404.44
2023-04-28T10:05:14.048Z,95402.50
2023-04-28T10:07:42.337Z,95401.13
2023-04-28T10:10:13.093Z,95399.69
2023-04-28T10:12:41.366Z,95370.84
2023-04-28T10:15:11.826Z,95391.34
2023-04-28T10:17:40.755Z,95393.69
2023-04-28T10:20:10.332Z,95385.06
2023-04-28T10:22:55.108Z,95391.00
2023-04-28T10:25:28.791Z,95385.78
2023-04-28T10:27:58.021Z,95336.44
2023-04-28T10:30:29.563Z,95368.91
2023-04-28T10:33:27.296Z,95381.00
2023-04-28T10:35:59.532Z,95374.88
2023-04-28T10:38:29.065Z,95373.88
2023-04-28T10:41:01.754Z,95365.03
2023-04-28T10:43:42.505Z,95375.81
2023-04-28T10:46:11.697Z,95363.09
2023-04-28T10:49:06.368Z,95361.53
2023-04-28T10:51:38.682Z,95314.56
2023-04-28T10:54:19.385Z,95357.81
2023-04-28T10:57:23.309Z,95353.72
2023-04-28T10:59:51.850Z,95347.19
2023-04-28T11:02:44.512Z,95348.41
2023-04-28T11:05:19.206Z,95322.34
2023-04-28T11:08:33.479Z,95357.00
2023-04-28T11:11:22.199Z,95349.84
2023-04-28T11:13:51.799Z,95345.84
2023-04-28T11:16:22.565Z,95330.78
2023-04-28T11:19:07.513Z,95308.56
2023-04-28T11:21:35.534Z,95320.56
2023-04-28T11:24:11.809Z,95324.44
2023-04-28T11:26:43.036Z,95341.03
2023-04-28T11:29:12.405Z,95288.38
2023-04-28T11:31:40.375Z,95337.09
2023-04-28T11:34:12.324Z,95321.72
2023-04-28T11:36:41.876Z,95317.41
2023-04-28T11:39:12.559Z,95314.91
2023-04-28T11:41:43.775Z,95311.41
2023-04-28T11:44:13.087Z,95289.81
2023-04-28T11:46:47.629Z,95299.78
2023-04-28T11:49:16.420Z,95283.59
2023-04-28T11:51:46.142Z,95298.88
2023-04-28T11:54:15.191Z,95286.94
2023-04-28T11:56:45.014Z,95285.66
2023-04-28T11:59:15.692Z,95277.22
2023-04-28T12:01:50.797Z,95287.47
2023-04-28T12:04:35.820Z,95293.00
2023-04-28T12:07:07.131Z,95287.56
2023-04-28T12:09:36.085Z,95279.84
2023-04-28T12:12:07.116Z,95240.88
2023-04-28T12:14:56.469Z,95267.72
2023-04-28T12:17:25.682Z,95262.19
2023-04-28T12:19:54.143Z,95253.81
2023-04-28T12:22:22.945Z,95259.19
2023-04-28T12:25:05.239Z,95259.25
2023-04-28T12:27:38.525Z,95258.38
2023-04-28T12:30:26.168Z,95248.75
2023-04-28T12:32:57.774Z,95244.25
2023-04-28T12:35:27.218Z,95243.28
2023-04-28T12:37:56.677Z,95244.69
2023-04-28T12:40:24.753Z,95222.69
2023-04-28T12:42:55.316Z,95240.81
2023-04-28T12:45:24.872Z,95242.63
2023-04-28T12:47:53.139Z,95236.66
2023-04-28T12:50:21.144Z,95236.69
2023-04-28T12:52:49.875Z,95233.75
2023-04-28T12:55:18.920Z,95236.25
2023-04-28T12:57:47.392Z,95219.72
2023-04-28T13:00:21.386Z,95223.25
2023-04-28T13:02:50.139Z,95222.72
2023-04-28T13:05:19.529Z,95215.59
2023-04-28T13:07:50.990Z,95207.66
2023-04-28T13:10:21.488Z,95198.34
2023-04-28T13:12:49.776Z,95195.53
2023-04-28T13:15:19.912Z,95210.47
2023-04-28T13:17:49.433Z,95155.94
2023-04-28T13:20:17.497Z,95215.78
2023-04-28T13:22:45.858Z,95203.03
2023-04-28T13:25:14.152Z,95200.38
2023-04-28T13:27:43.507Z,95207.78
2023-04-28T13:30:13.125Z,95208.16
2023-04-28T13:32:43.398Z,95212.59
2023-04-28T13:35:11.550Z,95195.81
2023-04-28T13:37:45.778Z,95211.28
2023-04-28T13:40:14.230Z,95158.66
2023-04-28T13:42:43.490Z,95205.78
2023-04-28T13:45:12.292Z,95193.03
2023-04-28T13:47:40.237Z,95182.91
2023-04-28T13:50:10.450Z,95191.00
2023-04-28T13:52:38.852Z,95194.91
2023-04-28T13:55:07.618Z,95196.41
2023-04-28T13:57:36.069Z,95186.31
2023-04-28T14:00:05.110Z,95180.06
2023-04-28T14:02:33.247Z,95180.56
2023-04-28T14:05:01.733Z,95176.16
2023-04-28T14:07:31.142Z,95171.72
2023-04-28T14:10:00.348Z,95179.16
2023-04-28T14:12:29.164Z,95180.09
2023-04-28T14:14:57.190Z,95177.53
2023-04-28T14:17:25.094Z,95174.97
2023-04-28T14:19:53.116Z,95108.00
2023-04-28T14:22:21.447Z,95171.84
2023-04-28T14:24:50.822Z,95181.91
2023-04-28T14:27:18.968Z,95158.75
2023-04-28T14:29:48.514Z,95161.34
2023-04-28T14:32:16.785Z,95165.41
2023-04-28T14:34:45.154Z,95164.03
2023-04-28T14:37:13.760Z,95161.25
2023-04-28T14:39:43.640Z,95156.44
2023-04-28T14:42:13.146Z,95147.88
2023-04-28T14:44:41.352Z,95140.81
2023-04-28T14:47:09.813Z,95142.13
2023-04-28T14:49:37.858Z,95141.25
2023-04-28T14:52:06.388Z,95071.38
2023-04-28T14:54:34.674Z,95136.09
2023-04-28T14:57:03.766Z,95127.06
2023-04-28T14:59:34.014Z,95143.06
2023-04-28T15:02:02.105Z,95140.72
2023-04-28T15:04:31.176Z,95152.19
2023-04-28T15:06:59.717Z,95151.28
2023-04-28T15:09:30.214Z,95142.72
2023-04-28T15:11:58.869Z,95153.78
2023-04-28T15:14:27.372Z,95133.75
2023-04-28T15:16:57.463Z,95154.94
2023-04-28T15:19:25.802Z,95150.53
2023-04-28T15:21:53.862Z,95093.94
2023-04-28T15:24:22.862Z,95151.97
2023-04-28T15:26:50.913Z,95141.84
2023-04-28T15:29:19.752Z,95148.16
2023-04-28T15:31:48.470Z,95149.38
2023-04-28T15:34:18.211Z,95141.00
2023-04-28T15:36:48.836Z,95139.25
2023-04-28T15:39:17.410Z,95139.22
2023-04-28T15:41:45.572Z,95129.25
2023-04-28T15:44:13.616Z,95138.00
2023-04-28T15:46:41.902Z,95137.97
2023-04-28T15:49:12.288Z,95132.28
2023-04-28T15:51:42.422Z,95128.47
2023-04-28T15:54:18.128Z,95114.56
2023-04-28T15:56:46.141Z,95131.59
2023-04-28T15:59:16.172Z,95121.22
2023-04-28T16:01:44.106Z,95120.00
2023-04-28T16:04:13.140Z,95118.78
2023-04-28T16:06:44.388Z,95118.25
2023-04-28T16:09:13.018Z,95122.16
2023-04-28T16:11:41.517Z,95112.38
2023-04-28T16:14:09.540Z,95115.81
2023-04-28T16:16:37.797Z,95121.53
2023-04-28T16:19:05.793Z,95130.34
2023-04-28T16:21:34.354Z,95120.50
2023-04-28T16:24:05.666Z,95130.28
2023-04-28T16:26:34.251Z,95126.72
2023-04-28T16:29:02.325Z,95114.13
2023-04-28T16:31:30.887Z,95074.56
2023-04-28T16:33:58.877Z,95025.66
2023-04-28T16:36:28.559Z,95137.06
2023-04-28T16:38:56.909Z,95134.78
2023-04-28T16:41:29.674Z,95141.44
2023-04-28T16:43:58.058Z,95154.09
2023-04-28T16:46:26.165Z,95143.28
2023-04-28T16:48:54.228Z,95146.69
2023-04-28T16:51:22.285Z,95078.50
2023-04-28T16:53:50.397Z,95143.31
2023-04-28T16:56:18.483Z,95163.16
2023-04-28T16:58:47.968Z,95144.94
2023-04-28T17:01:16.142Z,95157.50
2023-04-28T17:03:46.344Z,95157.91
2023-04-28T17:06:15.105Z,95152.38
2023-04-28T17:08:44.410Z,95154.66
2023-04-28T17:11:17.261Z,95160.81
2023-04-28T17:13:45.278Z,95170.13
2023-04-28T17:16:14.740Z,95163.34
2023-04-28T17:18:44.455Z,95112.47
2023-04-28T17:21:12.628Z,95158.94
2023-04-28T17:23:40.688Z,95170.13
2023-04-28T17:26:09.051Z,95165.06
2023-04-28T17:28:37.363Z,95171.47
2023-04-28T17:31:06.506Z,95175.97
2023-04-28T17:33:36.557Z,95171.56
2023-04-28T17:36:04.966Z,95177.56
2023-04-28T17:38:32.988Z,95178.03
2023-04-28T17:41:01.490Z,95176.72
2023-04-28T17:43:30.930Z,95192.88
2023-04-28T17:45:59.000Z,95156.78
2023-04-28T17:48:27.100Z,95193.34
2023-04-28T17:50:56.686Z,95195.50
2023-04-28T17:53:25.091Z,95206.91
2023-04-28T17:55:53.715Z,95212.75
2023-04-28T17:58:22.494Z,95218.13
2023-04-28T18:00:50.899Z,95204.78
2023-04-28T18:03:19.068Z,95116.19
2023-04-28T18:05:50.569Z,95222.63
2023-04-28T18:08:20.133Z,95225.09
2023-04-28T18:10:48.142Z,95228.09
2023-04-28T18:13:16.394Z,95231.13
2023-04-28T18:15:45.036Z,95237.16
2023-04-28T18:18:13.125Z,95229.34
2023-04-28T18:20:42.206Z,95236.03
2023-04-28T18:23:14.111Z,95237.53
2023-04-28T18:25:43.819Z,95226.41
2023-04-28T18:28:12.491Z,95236.50
2023-04-28T18:30:40.007Z,95244.16
2023-04-28T18:33:09.498Z,95185.13
2023-04-28T18:35:38.203Z,95233.78
2023-04-28T18:38:06.606Z,95186.31
2023-04-28T18:40:34.723Z,95255.03
2023-04-28T18:43:04.153Z,95249.16
2023-04-28T18:45:35.049Z,95246.88
2023-04-28T18:48:03.943Z,95253.22
2023-04-28T18:50:33.342Z,95257.13
2023-04-28T18:53:02.161Z,95242.34
2023-04-28T18:55:30.102Z,95243.88
2023-04-28T18:57:58.224Z,95267.06
2023-04-28T19:00:28.395Z,95260.59
2023-04-28T19:02:57.162Z,95269.31
2023-04-28T19:05:25.979Z,95262.56
2023-04-28T19:07:54.307Z,95253.78
2023-04-28T19:10:22.518Z,95267.97
2023-04-28T19:12:50.691Z,95272.19
2023-04-28T19:15:18.919Z,95273.41
2023-04-28T19:17:48.589Z,95266.16
2023-04-28T19:20:16.760Z,95267.06
2023-04-28T19:22:47.113Z,95260.88
2023-04-28T19:25:16.753Z,95255.00
2023-04-28T19:27:46.050Z,95258.44
2023-04-28T19:30:16.903Z,95254.97
2023-04-28T19:32:44.921Z,95255.72
2023-04-28T19:35:17.009Z,95249.81
2023-04-28T19:37:45.113Z,95249.03
2023-04-28T19:40:17.097Z,95244.41
2023-04-28T19:42:46.385Z,95249.81
2023-04-28T19:45:14.428Z,95249.50
2023-04-28T19:47:42.328Z,95249.03
2023-04-28T19:50:11.849Z,95245.72
2023-04-28T19:52:41.813Z,95257.56
2023-04-28T19:55:11.292Z,95240.38
2023-04-28T19:57:39.383Z,95226.72
2023-04-28T20:00:10.281Z,95251.13
2023-04-28T20:02:38.637Z,95231.00
2023-04-28T20:05:08.300Z,95244.09
2023-04-28T20:07:39.796Z,95247.13
2023-04-28T20:10:10.805Z,95216.59
2023-04-28T20:12:39.168Z,95248.56
2023-04-28T20:15:08.978Z,95238.91
2023-04-28T20:17:37.149Z,95239.22
2023-04-28T20:20:06.374Z,95220.50
2023-04-28T20:22:35.556Z,95240.00
2023-04-28T20:25:06.076Z,95238.22
2023-04-28T20:27:36.368Z,95242.78
2023-04-28T20:30:05.305Z,95246.03
2023-04-28T20:32:33.329Z,95198.41
2023-04-28T20:35:02.989Z,95239.66
2023-04-28T20:37:31.060Z,95235.34
2023-04-28T20:39:59.265Z,95189.31
2023-04-28T20:42:28.158Z,95238.84
2023-04-28T20:44:57.534Z,95237.88
2023-04-28T20:47:25.623Z,95232.13
2023-04-28T20:49:53.996Z,95235.16
2023-04-28T20:52:22.558Z,95235.16
2023-04-28T20:54:52.263Z,95219.97
2023-04-28T20:57:20.334Z,95220.19
2023-04-28T20:59:48.462Z,95229.59
2023-04-28T21:02:18.207Z,95215.25
2023-04-28T21:04:46.489Z,95220.09
2023-04-28T21:07:14.816Z,95215.97
2023-04-28T21:09:45.991Z,95230.53
2023-04-28T21:12:14.940Z,95177.75
2023-04-28T21:14:42.947Z,95220.19
2023-04-28T21:17:11.433Z,95230.75
2023-04-28T21:19:41.121Z,95155.00
2023-04-28T21:22:09.457Z,95234.97
2023-04-28T21:24:37.651Z,95234.34
2023-04-28T21:27:06.141Z,95220.63
2023-04-28T21:29:34.619Z,95234.34
2023-04-28T21:32:05.070Z,95234.13
2023-04-28T21:34:33.736Z,95232.13
2023-04-28T21:37:03.337Z,95218.84
2023-04-28T21:39:31.651Z,95222.75
2023-04-28T21:41:59.717Z,95223.84
2023-04-28T21:44:27.686Z,95226.31
2023-04-28T21:46:56.129Z,95226.44
2023-04-28T21:49:24.298Z,95229.25
2023-04-28T21:51:52.399Z,95223.53
2023-04-28T21:54:22.428Z,95211.44
2023-04-28T21:56:52.040Z,95216.41
2023-04-28T21:59:21.689Z,95220.38
2023-04-28T22:01:50.302Z,95214.91
2023-04-28T22:04:18.862Z,95207.44
2023-04-28T22:06:47.136Z,95214.91
2023-04-28T22:09:15.771Z,95216.75
2023-04-28T22:11:45.600Z,95212.31
2023-04-28T22:14:30.515Z,95215.97
2023-04-28T22:17:02.313Z,95200.78
2023-04-28T22:19:30.521Z,95210.16
2023-04-28T22:21:58.670Z,95208.66
2023-04-28T22:24:28.137Z,95212.31
2023-04-28T22:27:00.215Z,95210.78
2023-04-28T22:29:29.682Z,95210.69
2023-04-28T22:31:58.765Z,95213.06
2023-04-28T22:34:26.804Z,95216.19
2023-04-28T22:36:55.386Z,95167.97
2023-04-28T22:39:25.196Z,95206.91
2023-04-28T22:41:53.450Z,95210.13
2023-04-28T22:44:26.153Z,95202.31
2023-04-28T22:46:54.525Z,95192.41
2023-04-28T22:49:26.113Z,95196.97
2023-04-28T22:51:54.233Z,95192.94
2023-04-28T22:54:22.426Z,95194.66
2023-04-28T22:56:53.324Z,95196.19
2023-04-28T22:59:23.660Z,95178.31
2023-04-28T23:01:52.313Z,95179.19
2023-04-28T23:04:21.221Z,95175.38
2023-04-28T23:06:50.011Z,95167.28
2023-04-28T23:09:18.158Z,95183.34
2023-04-28T23:11:46.181Z,95171.03
2023-04-28T23:14:14.251Z,95173.13
2023-04-28T23:16:44.648Z,95163.09
2023-04-28T23:19:13.048Z,95168.94
2023-04-28T23:21:40.927Z,95165.69
2023-04-28T23:24:10.956Z,95159.25
2023-04-28T23:26:38.820Z,95162.13
2023-04-28T23:29:09.072Z,95165.25
2023-04-28T23:31:40.112Z,95164.69
2023-04-28T23:34:10.257Z,95170.09
2023-04-28T23:36:38.227Z,95161.78
2023-04-28T23:39:06.423Z,95152.94
2023-04-28T23:41:34.763Z,95127.19
2023-04-28T23:44:04.794Z,95157.59
2023-04-28T23:46:33.155Z,95139.81
2023-04-28T23:49:03.680Z,95147.69
2023-04-28T23:51:33.149Z,95140.13
2023-04-28T23:54:02.068Z,95141.94
2023-04-28T23:56:29.974Z,95150.91
2023-04-28T23:58:58.270Z,95153.38
